createdAt,value
2022-12-25T00:02:16.112Z,8.15
2022-12-25T00:04:46.363Z,9.95
2022-12-25T00:07:16.588Z,8.85
2022-12-25T00:09:49.112Z,9.02
2022-12-25T00:12:19.427Z,9.48
2022-12-25T00:14:49.833Z,7.40
2022-12-25T00:17:20.402Z,6.95
2022-12-25T00:19:50.680Z,8.07
2022-12-25T00:22:20.978Z,11.10
2022-12-25T00:24:53.533Z,14.00
2022-12-25T00:27:23.761Z,10.85
2022-12-25T00:29:53.940Z,9.90
2022-12-25T00:32:24.189Z,13.60
2022-12-25T00:34:54.462Z,8.77
2022-12-25T00:37:24.666Z,10.85
2022-12-25T00:39:57.232Z,7.00
2022-12-25T00:42:28.548Z,5.75
2022-12-25T00:44:58.467Z,13.32
2022-12-25T00:47:28.714Z,13.50
2022-12-25T00:49:58.939Z,10.15
2022-12-25T00:52:29.213Z,11.13
2022-12-25T00:55:01.729Z,5.70
2022-12-25T00:57:31.676Z,7.82
2022-12-25T01:00:01.738Z,7.43
2022-12-25T01:02:32.626Z,9.93
2022-12-25T01:05:03.012Z,12.93
2022-12-25T01:07:33.231Z,8.15
2022-12-25T01:10:18.447Z,8.50
2022-12-25T01:12:48.423Z,7.18
2022-12-25T01:15:18.488Z,6.03
2022-12-25T01:17:48.613Z,5.40
2022-12-25T01:20:20.402Z,12.48
2022-12-25T01:22:50.378Z,5.80
2022-12-25T01:25:23.035Z,7.35
2022-12-25T01:27:54.201Z,8.20
2022-12-25T01:30:25.804Z,9.20
2022-12-25T01:32:56.132Z,7.45
2022-12-25T01:35:27.019Z,7.80
2022-12-25T01:37:57.158Z,8.00
2022-12-25T01:40:29.850Z,10.40
2022-12-25T01:42:59.791Z,10.65
2022-12-25T01:45:40.555Z,8.38
2022-12-25T01:48:15.693Z,10.98
2022-12-25T01:50:48.964Z,5.00
2022-12-25T01:53:19.446Z,6.53
2022-12-25T01:55:55.967Z,7.43
2022-12-25T01:58:26.542Z,6.80
2022-12-25T02:00:57.186Z,7.25
2022-12-25T02:03:28.053Z,8.02
2022-12-25T02:05:59.066Z,7.88
2022-12-25T02:08:29.553Z,8.32
2022-12-25T02:11:02.309Z,8.32
2022-12-25T02:13:34.113Z,5.32
2022-12-25T02:16:11.134Z,9.40
2022-12-25T02:18:48.744Z,5.80
2022-12-25T02:21:42.252Z,7.65
2022-12-25T02:24:54.942Z,6.95
2022-12-25T02:27:54.853Z,7.28
2022-12-25T02:30:25.382Z,10.38
2022-12-25T02:33:21.588Z,5.63
2022-12-25T02:35:54.007Z,6.70
2022-12-25T02:38:28.500Z,3.65
2022-12-25T02:40:58.867Z,5.72
2022-12-25T02:43:47.683Z,7.20
2022-12-25T02:46:34.266Z,4.90
2022-12-25T02:49:20.817Z,5.95
2022-12-25T02:52:08.769Z,5.97
2022-12-25T02:54:57.191Z,3.45
2022-12-25T02:57:44.498Z,8.35
2022-12-25T03:00:30.456Z,5.05
2022-12-25T03:03:14.750Z,8.00
2022-12-25T03:06:13.357Z,5.38
2022-12-25T03:08:45.683Z,10.43
2022-12-25T03:11:28.689Z,5.70
2022-12-25T03:14:21.377Z,6.78
2022-12-25T03:16:55.381Z,9.13
2022-12-25T03:19:41.185Z,11.68
2022-12-25T03:22:28.525Z,5.03
2022-12-25T03:25:11.043Z,4.82
2022-12-25T03:27:43.464Z,4.90
2022-12-25T03:30:26.949Z,3.50
2022-12-25T03:33:36.762Z,5.90
2022-12-25T03:36:04.403Z,6.50
2022-12-25T03:39:03.249Z,5.85
2022-12-25T03:41:53.410Z,4.63
2022-12-25T03:44:42.846Z,4.88
2022-12-25T03:47:31.997Z,3.58
2022-12-25T03:50:22.622Z,5.45
2022-12-25T03:53:06.363Z,4.82
2022-12-25T03:55:50.638Z,4.33
2022-12-25T03:58:33.955Z,10.70
2022-12-25T04:01:16.525Z,6.97
2022-12-25T04:03:59.058Z,4.53
2022-12-25T04:06:49.563Z,3.58
2022-12-25T04:09:32.063Z,6.32
2022-12-25T04:12:14.466Z,7.15
2022-12-25T04:14:56.932Z,6.53
2022-12-25T04:17:39.326Z,3.72
2022-12-25T04:20:23.610Z,6.80
2022-12-25T04:23:08.638Z,7.88
2022-12-25T04:25:51.107Z,7.00
2022-12-25T04:28:33.511Z,11.05
2022-12-25T04:31:16.404Z,3.97
2022-12-25T04:33:59.845Z,6.90
2022-12-25T04:36:29.872Z,5.55
2022-12-25T04:39:02.369Z,6.30
2022-12-25T04:41:32.317Z,5.05
2022-12-25T04:44:02.241Z,7.47
2022-12-25T04:46:32.356Z,10.88
2022-12-25T04:49:02.318Z,4.22
2022-12-25T04:51:32.495Z,5.45
2022-12-25T04:54:05.090Z,5.43
2022-12-25T04:56:40.075Z,6.35
2022-12-25T04:59:13.549Z,6.93
2022-12-25T05:01:43.602Z,5.18
2022-12-25T05:04:13.698Z,5.68
2022-12-25T05:06:43.662Z,6.07
2022-12-25T05:09:16.383Z,8.77
2022-12-25T05:11:46.345Z,7.38
2022-12-25T05:14:16.437Z,8.57
2022-12-25T05:16:46.504Z,6.38
2022-12-25T05:19:16.466Z,7.22
2022-12-25T05:21:46.487Z,11.93
2022-12-25T05:24:19.057Z,8.98
2022-12-25T05:26:49.162Z,7.65
2022-12-25T05:29:19.072Z,9.98
2022-12-25T05:31:49.202Z,11.45
2022-12-25T05:34:19.182Z,10.77
2022-12-25T05:36:49.175Z,12.68
2022-12-25T05:39:21.997Z,7.75
2022-12-25T05:41:52.002Z,8.63
2022-12-25T05:44:22.045Z,9.13
2022-12-25T05:46:52.245Z,7.32
2022-12-25T05:49:22.585Z,13.45
2022-12-25T05:51:52.680Z,13.40
2022-12-25T05:54:25.279Z,10.75
2022-12-25T05:56:55.337Z,10.65
2022-12-25T05:59:25.326Z,9.57
2022-12-25T06:01:55.483Z,6.65
2022-12-25T06:04:26.811Z,11.38
2022-12-25T06:06:57.024Z,8.43
2022-12-25T06:09:29.736Z,9.13
2022-12-25T06:11:59.706Z,9.35
2022-12-25T06:14:29.728Z,7.72
2022-12-25T06:16:59.748Z,10.60
2022-12-25T06:19:29.847Z,9.02
2022-12-25T06:21:59.849Z,5.90
2022-12-25T06:24:32.551Z,9.65
2022-12-25T06:27:02.548Z,6.85
2022-12-25T06:29:32.529Z,8.20
2022-12-25T06:32:02.576Z,8.40
2022-12-25T06:34:32.684Z,6.07
2022-12-25T06:37:02.614Z,6.40
2022-12-25T06:39:35.276Z,8.95
2022-12-25T06:42:05.328Z,9.77
2022-12-25T06:44:36.032Z,11.65
2022-12-25T06:47:06.032Z,6.47
2022-12-25T06:49:36.066Z,13.98
2022-12-25T06:52:06.073Z,11.68
2022-12-25T06:54:38.728Z,9.13
2022-12-25T06:57:08.654Z,12.75
2022-12-25T06:59:38.749Z,9.07
2022-12-25T07:02:09.153Z,11.88
2022-12-25T07:04:43.510Z,9.90
2022-12-25T07:09:46.180Z,12.48
2022-12-25T07:12:19.321Z,11.75
2022-12-25T07:14:51.191Z,20.30
2022-12-25T07:17:22.405Z,12.27
2022-12-25T07:19:52.788Z,10.70
2022-12-25T07:22:23.023Z,14.13
2022-12-25T07:24:55.559Z,12.27
2022-12-25T07:27:25.634Z,12.63
2022-12-25T07:29:55.724Z,11.68
2022-12-25T07:32:25.725Z,11.73
2022-12-25T07:34:55.693Z,14.73
2022-12-25T07:37:25.867Z,12.13
2022-12-25T07:39:58.490Z,11.13
2022-12-25T07:42:28.591Z,13.65
2022-12-25T07:44:58.595Z,15.40
2022-12-25T07:47:28.566Z,10.70
2022-12-25T07:49:58.527Z,12.77
2022-12-25T07:52:28.686Z,9.95
2022-12-25T07:55:01.278Z,11.15
2022-12-25T07:57:31.355Z,13.48
2022-12-25T08:00:01.283Z,12.63
2022-12-25T08:02:42.079Z,11.80
2022-12-25T08:05:12.825Z,10.40
2022-12-25T08:07:42.861Z,12.07
2022-12-25T08:10:15.614Z,7.65
2022-12-25T08:12:45.580Z,9.38
2022-12-25T08:15:15.779Z,7.63
2022-12-25T08:17:45.774Z,12.75
2022-12-25T08:20:16.301Z,13.73
2022-12-25T08:22:46.290Z,12.00
2022-12-25T08:25:18.968Z,11.88
2022-12-25T08:27:48.982Z,8.55
2022-12-25T08:30:19.250Z,8.88
2022-12-25T08:32:49.216Z,8.63
2022-12-25T08:35:19.568Z,7.68
2022-12-25T08:37:49.690Z,10.10
2022-12-25T08:40:22.338Z,8.60
2022-12-25T08:42:52.280Z,12.57
2022-12-25T08:45:22.223Z,9.30
2022-12-25T08:47:57.154Z,10.25
2022-12-25T08:50:28.504Z,9.05
2022-12-25T08:52:58.476Z,12.93
2022-12-25T08:55:31.037Z,9.48
2022-12-25T08:58:01.015Z,14.02
2022-12-25T09:00:31.240Z,9.20
2022-12-25T09:03:01.408Z,8.85
2022-12-25T09:05:32.162Z,12.23
2022-12-25T09:08:02.105Z,9.68
2022-12-25T09:10:37.582Z,7.93
2022-12-25T09:13:07.817Z,8.77
2022-12-25T09:15:37.900Z,8.75
2022-12-25T09:18:08.085Z,8.65
2022-12-25T09:20:38.104Z,9.77
2022-12-25T09:23:13.518Z,8.40
2022-12-25T09:25:46.769Z,8.88
2022-12-25T09:28:16.771Z,9.27
2022-12-25T09:30:46.941Z,6.55
2022-12-25T09:33:17.077Z,6.50
2022-12-25T09:35:47.120Z,9.65
2022-12-25T09:38:17.140Z,7.07
2022-12-25T09:40:49.819Z,7.35
2022-12-25T09:43:23.493Z,5.95
2022-12-25T09:45:53.605Z,13.82
2022-12-25T09:48:23.635Z,15.48
2022-12-25T09:50:58.652Z,9.57
2022-12-25T09:53:31.354Z,6.82
2022-12-25T09:56:12.291Z,16.33
2022-12-25T09:58:42.275Z,6.93
2022-12-25T10:01:19.767Z,4.80
2022-12-25T10:04:06.288Z,4.20
2022-12-25T10:06:45.790Z,7.03
2022-12-25T10:09:29.057Z,5.97
2022-12-25T10:12:11.652Z,5.53
2022-12-25T10:14:52.605Z,6.85
2022-12-25T10:17:33.017Z,2.95
2022-12-25T10:20:08.437Z,2.53
2022-12-25T10:22:43.368Z,2.45
2022-12-25T10:25:19.870Z,7.32
2022-12-25T10:27:55.565Z,4.10
2022-12-25T10:30:28.219Z,3.33
2022-12-25T10:32:59.969Z,3.03
2022-12-25T10:35:33.007Z,2.95
2022-12-25T10:38:05.901Z,2.83
2022-12-25T10:40:43.555Z,5.22
2022-12-25T10:43:21.468Z,3.47
2022-12-25T10:45:52.521Z,2.22
2022-12-25T10:48:28.199Z,2.95
2022-12-25T10:50:59.368Z,4.13
2022-12-25T10:53:31.047Z,3.17
2022-12-25T10:56:03.532Z,3.22
2022-12-25T10:58:37.365Z,3.25
2022-12-25T11:01:09.678Z,2.85
2022-12-25T11:03:42.889Z,1.67
2022-12-25T11:06:25.849Z,2.38
2022-12-25T11:08:59.450Z,4.82
2022-12-25T11:11:31.329Z,1.83
2022-12-25T11:14:05.631Z,2.13
2022-12-25T11:19:27.613Z,1.70
2022-12-25T11:22:00.048Z,2.88
2022-12-25T11:24:32.612Z,3.03
2022-12-25T11:27:04.905Z,1.38
2022-12-25T11:29:45.016Z,2.15
2022-12-25T11:32:21.115Z,2.05
2022-12-25T11:34:53.705Z,1.95
2022-12-25T11:37:30.213Z,2.08
2022-12-25T11:40:00.537Z,1.98
2022-12-25T11:42:35.848Z,1.95
2022-12-25T11:45:15.206Z,2.20
2022-12-25T11:47:49.044Z,4.53
2022-12-25T11:50:25.790Z,3.47
2022-12-25T11:52:56.889Z,2.70
2022-12-25T11:55:36.173Z,2.72
2022-12-25T11:58:16.290Z,2.10
2022-12-25T12:00:50.407Z,3.00
2022-12-25T12:03:25.251Z,2.28
2022-12-25T12:05:58.593Z,2.65
2022-12-25T12:08:28.688Z,1.58
2022-12-25T12:11:21.279Z,1.05
2022-12-25T12:14:05.109Z,2.78
2022-12-25T12:16:38.299Z,2.47
2022-12-25T12:19:16.767Z,1.67
2022-12-25T12:21:52.357Z,1.75
2022-12-25T12:24:24.733Z,1.85
2022-12-25T12:27:05.000Z,3.05
2022-12-25T12:29:40.357Z,4.65
2022-12-25T12:32:39.004Z,1.60
2022-12-25T12:35:18.739Z,3.05
2022-12-25T12:37:51.923Z,1.55
2022-12-25T12:40:29.419Z,1.88
2022-12-25T12:42:59.474Z,1.58
2022-12-25T12:45:32.423Z,1.38
2022-12-25T12:48:16.609Z,3.80
2022-12-25T12:50:46.640Z,2.22
2022-12-25T12:53:31.206Z,1.40
2022-12-25T12:56:15.923Z,2.42
2022-12-25T12:58:50.086Z,2.90
2022-12-25T13:01:48.156Z,1.05
2022-12-25T13:04:52.587Z,1.52
2022-12-25T13:07:45.004Z,0.97
2022-12-25T13:10:25.460Z,1.67
2022-12-25T13:12:57.770Z,2.15
2022-12-25T13:15:30.480Z,2.28
2022-12-25T13:18:04.475Z,1.90
2022-12-25T13:20:44.457Z,1.27
2022-12-25T13:23:26.138Z,2.03
2022-12-25T13:25:57.145Z,1.52
2022-12-25T13:28:32.149Z,1.73
2022-12-25T13:31:06.832Z,2.17
2022-12-25T13:33:37.888Z,2.65
2022-12-25T13:36:14.170Z,1.55
2022-12-25T13:38:48.001Z,2.22
2022-12-25T13:41:39.800Z,1.67
2022-12-25T13:44:17.317Z,1.08
2022-12-25T13:46:47.499Z,0.77
2022-12-25T13:49:19.318Z,1.27
2022-12-25T13:51:53.601Z,3.13
2022-12-25T13:54:24.359Z,1.67
2022-12-25T13:56:56.554Z,1.63
2022-12-25T13:59:28.514Z,1.45
2022-12-25T14:02:00.034Z,2.15
2022-12-25T14:04:31.309Z,1.40
2022-12-25T14:07:12.401Z,1.33
2022-12-25T14:09:42.980Z,1.17
2022-12-25T14:12:19.100Z,5.05
2022-12-25T14:14:50.348Z,1.73
2022-12-25T14:17:21.118Z,0.98
2022-12-25T14:20:07.635Z,3.08
2022-12-25T14:22:41.695Z,2.65
2022-12-25T14:25:18.105Z,2.55
2022-12-25T14:27:52.272Z,3.95
2022-12-25T14:30:23.409Z,5.93
2022-12-25T14:32:56.554Z,4.00
2022-12-25T14:35:27.562Z,4.78
2022-12-25T14:38:02.029Z,4.80
2022-12-25T14:40:36.065Z,2.42
2022-12-25T14:43:09.044Z,3.78
2022-12-25T14:45:40.711Z,1.23
2022-12-25T14:48:24.699Z,3.20
2022-12-25T14:51:01.733Z,2.88
2022-12-25T14:53:39.271Z,1.70
2022-12-25T14:56:11.125Z,1.98
2022-12-25T14:58:45.399Z,3.28
2022-12-25T15:03:52.816Z,3.95
2022-12-25T15:06:25.009Z,1.77
2022-12-25T15:09:02.831Z,1.95
2022-12-25T15:11:33.148Z,1.77
2022-12-25T15:14:03.399Z,2.63
2022-12-25T15:16:37.482Z,1.73
2022-12-25T15:19:10.295Z,1.48
2022-12-25T15:21:40.649Z,1.73
2022-12-25T15:24:15.887Z,1.27
2022-12-25T15:26:46.192Z,2.08
2022-12-25T15:29:16.276Z,3.08
2022-12-25T15:31:46.231Z,1.38
2022-12-25T15:34:21.051Z,2.72
2022-12-25T15:36:51.141Z,2.97
2022-12-25T15:39:23.634Z,2.28
2022-12-25T15:42:06.068Z,2.38
2022-12-25T15:44:36.097Z,7.75
2022-12-25T15:47:06.066Z,5.20
2022-12-25T15:49:36.050Z,2.25
2022-12-25T15:52:06.572Z,3.20
2022-12-25T15:54:39.072Z,3.47
2022-12-25T15:57:16.411Z,3.83
2022-12-25T15:59:46.520Z,6.00
2022-12-25T16:02:19.738Z,3.67
2022-12-25T16:04:51.229Z,4.73
2022-12-25T16:07:25.066Z,2.75
2022-12-25T16:09:57.641Z,5.07
2022-12-25T16:12:27.609Z,4.55
2022-12-25T16:14:57.550Z,4.63
2022-12-25T16:17:27.526Z,4.28
2022-12-25T16:19:57.506Z,4.40
2022-12-25T16:22:28.546Z,5.20
2022-12-25T16:25:01.139Z,2.40
2022-12-25T16:27:31.048Z,5.35
2022-12-25T16:30:01.018Z,5.40
2022-12-25T16:32:31.163Z,4.65
2022-12-25T16:35:01.465Z,3.83
2022-12-25T16:37:31.887Z,4.50
2022-12-25T16:40:04.768Z,4.28
2022-12-25T16:42:35.160Z,5.88
2022-12-25T16:45:05.293Z,3.63
2022-12-25T16:47:35.289Z,3.60
2022-12-25T16:50:06.513Z,4.15
2022-12-25T16:52:37.624Z,3.67
2022-12-25T16:55:11.379Z,5.30
2022-12-25T16:57:41.472Z,4.65
2022-12-25T17:00:13.171Z,6.90
2022-12-25T17:02:43.748Z,3.28
2022-12-25T17:05:14.042Z,5.55
2022-12-25T17:07:45.263Z,8.48
2022-12-25T17:10:17.816Z,4.78
2022-12-25T17:12:48.818Z,8.85
2022-12-25T17:15:20.923Z,4.80
2022-12-25T17:17:50.990Z,4.60
2022-12-25T17:20:21.166Z,4.32
2022-12-25T17:22:52.526Z,4.00
2022-12-25T17:25:25.145Z,4.80
2022-12-25T17:27:55.160Z,5.78
2022-12-25T17:30:25.131Z,11.43
2022-12-25T17:32:55.389Z,5.78
2022-12-25T17:35:25.356Z,5.07
2022-12-25T17:37:55.353Z,5.30
2022-12-25T17:40:27.890Z,7.60
2022-12-25T17:42:58.260Z,5.03
2022-12-25T17:45:28.260Z,3.50
2022-12-25T17:47:58.300Z,4.20
2022-12-25T17:50:28.566Z,4.10
2022-12-25T17:52:58.625Z,3.75
2022-12-25T17:55:34.468Z,3.40
2022-12-25T17:58:04.605Z,3.53
2022-12-25T18:00:34.687Z,7.38
2022-12-25T18:03:11.231Z,4.93
2022-12-25T18:05:42.019Z,2.70
2022-12-25T18:08:12.195Z,5.25
2022-12-25T18:10:46.372Z,3.58
2022-12-25T18:13:16.450Z,5.75
2022-12-25T18:15:46.586Z,19.70
2022-12-25T18:18:16.610Z,8.88
2022-12-25T18:20:46.592Z,4.70
2022-12-25T18:23:18.014Z,3.92
2022-12-25T18:25:50.848Z,5.35
2022-12-25T18:28:21.133Z,5.03
2022-12-25T18:30:51.787Z,4.50
2022-12-25T18:33:22.161Z,3.67
2022-12-25T18:35:52.741Z,4.45
2022-12-25T18:38:23.006Z,4.80
2022-12-25T18:40:56.036Z,3.97
2022-12-25T18:43:52.629Z,5.10
2022-12-25T18:46:18.803Z,3.47
2022-12-25T18:48:48.757Z,3.63
2022-12-25T18:51:18.775Z,4.70
2022-12-25T18:53:48.850Z,6.80
2022-12-25T18:56:21.853Z,2.97
2022-12-25T18:58:51.831Z,3.88
2022-12-25T19:01:24.441Z,4.25
2022-12-25T19:04:02.123Z,4.35
2022-12-25T19:06:34.297Z,3.08
2022-12-25T19:09:09.409Z,4.60
2022-12-25T19:11:46.629Z,2.88
2022-12-25T19:14:17.317Z,2.30
2022-12-25T19:16:47.338Z,4.95
2022-12-25T19:19:17.879Z,3.10
2022-12-25T19:21:47.831Z,3.83
2022-12-25T19:24:17.785Z,4.35
2022-12-25T19:26:50.351Z,4.20
2022-12-25T19:29:20.630Z,6.15
2022-12-25T19:31:50.688Z,5.68
2022-12-25T19:34:20.806Z,6.00
2022-12-25T19:36:50.878Z,6.22
2022-12-25T19:39:22.100Z,4.30
2022-12-25T19:41:55.730Z,6.18
2022-12-25T19:44:25.713Z,6.38
2022-12-25T19:46:56.443Z,4.75
2022-12-25T19:49:26.568Z,3.83
2022-12-25T19:51:56.641Z,3.90
2022-12-25T19:54:26.762Z,4.88
2022-12-25T19:56:59.437Z,3.42
2022-12-25T19:59:29.740Z,3.08
2022-12-25T20:01:59.960Z,5.30
2022-12-25T20:04:30.269Z,3.67
2022-12-25T20:07:00.480Z,4.82
2022-12-25T20:09:32.781Z,3.88
2022-12-25T20:12:05.822Z,3.75
2022-12-25T20:14:35.787Z,4.68
2022-12-25T20:17:09.389Z,4.80
2022-12-25T20:19:42.525Z,7.07
2022-12-25T20:22:12.784Z,3.97
2022-12-25T20:24:43.024Z,3.90
2022-12-25T20:27:15.621Z,6.72
2022-12-25T20:29:45.741Z,5.47
2022-12-25T20:32:16.725Z,5.10
2022-12-25T20:34:46.993Z,6.63
2022-12-25T20:37:17.276Z,4.78
2022-12-25T20:39:47.633Z,4.38
2022-12-25T20:42:20.422Z,4.25
2022-12-25T20:44:50.930Z,4.25
2022-12-25T20:47:20.928Z,5.82
2022-12-25T20:49:51.224Z,6.00
2022-12-25T20:52:22.248Z,3.80
2022-12-25T20:54:52.577Z,6.25
2022-12-25T20:57:26.061Z,8.75
2022-12-25T20:59:56.117Z,6.23
2022-12-25T21:02:35.552Z,4.78
2022-12-25T21:05:07.971Z,5.50
2022-12-25T21:07:37.957Z,4.45
2022-12-25T21:10:09.209Z,3.72
2022-12-25T21:12:41.910Z,16.15
2022-12-25T21:15:15.594Z,5.20
2022-12-25T21:17:45.940Z,6.72
2022-12-25T21:20:15.972Z,4.78
2022-12-25T21:22:46.006Z,7.70
2022-12-25T21:25:15.972Z,6.82
2022-12-25T21:27:48.783Z,6.65
2022-12-25T21:30:19.293Z,5.38
2022-12-25T21:33:02.118Z,6.20
2022-12-25T21:35:33.347Z,6.70
2022-12-25T21:38:03.312Z,8.07
2022-12-25T21:40:35.811Z,8.00
2022-12-25T21:43:08.792Z,8.07
2022-12-25T21:45:38.861Z,7.32
2022-12-25T21:48:09.140Z,5.20
2022-12-25T21:50:52.827Z,4.75
2022-12-25T21:53:23.322Z,4.28
2022-12-25T21:56:02.489Z,10.75
2022-12-25T21:58:35.244Z,4.68
2022-12-25T22:01:06.044Z,4.53
2022-12-25T22:03:37.249Z,8.40
2022-12-25T22:06:21.852Z,7.38
2022-12-25T22:11:34.159Z,13.48
2022-12-25T22:14:19.280Z,5.07
2022-12-25T22:17:22.171Z,6.15
2022-12-25T22:19:52.704Z,6.18
2022-12-25T22:22:24.521Z,6.90
2022-12-25T22:24:56.135Z,6.35
2022-12-25T22:27:27.233Z,9.23
2022-12-25T22:29:59.760Z,5.38
2022-12-25T22:32:30.364Z,8.70
2022-12-25T22:35:00.457Z,7.72
2022-12-25T22:37:30.489Z,6.35
2022-12-25T22:40:02.307Z,6.72
2022-12-25T22:42:32.327Z,6.88
2022-12-25T22:45:05.257Z,7.00
2022-12-25T22:47:35.511Z,5.45
2022-12-25T22:50:05.539Z,10.10
2022-12-25T22:52:35.529Z,5.97
2022-12-25T22:55:07.701Z,6.80
2022-12-25T22:57:38.461Z,4.43
2022-12-25T23:00:12.759Z,8.23
2022-12-25T23:02:43.028Z,6.28
2022-12-25T23:05:13.253Z,5.32
2022-12-25T23:07:43.264Z,5.47
2022-12-25T23:10:14.184Z,5.50
2022-12-25T23:12:56.904Z,10.13
2022-12-25T23:15:30.279Z,7.20
2022-12-25T23:18:12.722Z,9.23
2022-12-25T23:20:55.112Z,7.10
2022-12-25T23:23:38.547Z,5.32
2022-12-25T23:26:11.578Z,3.70
2022-12-25T23:28:56.247Z,4.63
2022-12-25T23:34:00.495Z,6.00
2022-12-25T23:36:30.625Z,9.65
2022-12-25T23:39:08.671Z,7.70
2022-12-25T23:41:40.105Z,7.90
2022-12-25T23:44:11.073Z,7.10
2022-12-25T23:46:52.713Z,5.50
2022-12-25T23:49:23.910Z,4.35
2022-12-25T23:51:55.218Z,5.28
2022-12-25T23:54:27.592Z,4.80
2022-12-25T23:56:58.306Z,4.85
2022-12-25T23:59:29.950Z,4.68
